Time;durP1;ratioP1;P1;durP2;ratioP2;P2;SDS_P1;SDS_P2;PMS_P1;PMS_P2;Temp;Humidity;BMP_temperature;BMP_pressure;BME280_temperature;BME280_humidity;BME280_pressure;Samples;Min_cycle;Max_cycle;Signal;HPM_P1;HPM_P2
2024/01/12 00:01:13;;;;;;;17.77;7.07;;;;;;;-0.01;100.00;103553.75;7391070;19;19922;-78
2024/01/12 00:03:42;;;;;;;18.05;7.07;;;;;;;0.07;100.00;103565.91;7393861;19;19923;-78
2024/01/12 00:06:11;;;;;;;23.45;8.55;;;;;;;0.13;100.00;103555.16;7393348;19;19922;-78
2024/01/12 00:08:42;;;;;;;15.93;7.22;;;;;;;0.16;100.00;103563.88;7395367;19;19950;-78
2024/01/12 00:11:11;;;;;;;17.13;7.38;;;;;;;0.21;100.00;103567.28;7391238;19;19918;-78
2024/01/12 00:14:00;;;;;;;21.48;8.18;;;;;;;0.26;100.00;103564.47;7391661;19;19952;-78
2024/01/12 00:16:29;;;;;;;18.77;7.20;;;;;;;0.31;100.00;103567.84;7396013;19;19923;-78
2024/01/12 00:18:58;;;;;;;20.80;7.00;;;;;;;0.34;100.00;103555.38;7398498;19;20370;-78
2024/01/12 00:21:26;;;;;;;17.70;6.40;;;;;;;0.36;100.00;103550.03;7399576;19;19925;-77
2024/01/12 00:23:58;;;;;;;18.95;6.63;;;;;;;0.38;100.00;103549.06;7399445;19;19923;-78
2024/01/12 00:26:46;;;;;;;16.92;6.45;;;;;;;0.43;100.00;103549.78;7396277;19;19932;-78
2024/01/12 00:29:15;;;;;;;16.33;6.57;;;;;;;0.49;100.00;103550.53;7399677;19;19914;-78
2024/01/12 00:31:45;;;;;;;15.93;6.07;;;;;;;0.54;100.00;103551.25;7399546;19;19922;-78
2024/01/12 00:34:13;;;;;;;16.80;6.95;;;;;;;0.58;100.00;103556.41;7397770;19;19973;-78
2024/01/12 00:36:42;;;;;;;21.27;6.57;;;;;;;0.61;100.00;103548.34;7397303;19;19933;-78
2024/01/12 00:39:13;;;;;;;15.45;5.63;;;;;;;0.65;100.00;103551.81;7400749;19;19941;-77
2024/01/12 00:41:42;;;;;;;11.43;5.35;;;;;;;0.68;100.00;103547.28;7400015;19;20380;-78
2024/01/12 00:44:11;;;;;;;12.68;4.70;;;;;;;0.73;100.00;103547.13;7397739;19;20570;-77
2024/01/12 00:46:42;;;;;;;16.88;5.65;;;;;;;0.78;100.00;103547.81;7398174;19;20255;-78
2024/01/12 00:49:11;;;;;;;17.65;5.05;;;;;;;0.85;100.00;103541.41;7398413;19;19934;-77
2024/01/12 00:51:39;;;;;;;10.45;4.68;;;;;;;0.90;100.00;103550.09;7398572;19;19926;-78
2024/01/12 00:54:08;;;;;;;13.90;4.40;;;;;;;0.93;100.00;103547.34;7400256;19;19919;-78
2024/01/12 00:56:59;;;;;;;7.43;3.83;;;;;;;0.97;100.00;103542.81;7397923;19;19918;-78
2024/01/12 00:59:28;;;;;;;14.30;4.65;;;;;;;1.00;100.00;103538.25;7399636;19;19953;-77
2024/01/12 01:01:58;;;;;;;19.17;6.47;;;;;;;1.04;100.00;103539.88;7399834;19;19918;-76
2024/01/12 01:04:27;;;;;;;20.45;6.63;;;;;;;1.07;100.00;103539.81;7397157;19;20645;-77
2024/01/12 01:07:15;;;;;;;13.80;5.10;;;;;;;1.11;100.00;103554.72;7399321;19;20247;-77
2024/01/12 01:09:44;;;;;;;24.55;6.88;;;;;;;1.15;100.00;103550.16;7395704;19;19922;-77
2024/01/12 01:12:15;;;;;;;19.17;6.28;;;;;;;1.20;100.00;103542.94;7396042;19;19930;-76
2024/01/12 01:14:44;;;;;;;13.10;4.47;;;;;;;1.27;100.00;103536.47;7403684;19;19914;-77
2024/01/12 01:17:12;;;;;;;11.10;4.47;;;;;;;1.31;100.00;103535.44;7397963;19;19926;-76
2024/01/12 01:19:41;;;;;;;16.83;5.22;;;;;;;1.34;100.00;103530.91;7398375;19;19927;-77
2024/01/12 01:22:09;;;;;;;17.23;5.22;;;;;;;1.38;100.00;103531.69;7397573;19;19946;-77
2024/01/12 01:24:38;;;;;;;14.55;5.32;;;;;;;1.39;100.00;103530.75;7398499;19;19952;-77
2024/01/12 01:27:07;;;;;;;23.23;6.07;;;;;;;1.40;100.00;103526.31;7394302;19;19950;-77
2024/01/12 01:29:38;;;;;;;14.98;5.82;;;;;;;1.42;100.00;103530.66;7398183;19;19950;-76
2024/01/12 01:32:07;;;;;;;7.80;4.10;;;;;;;1.41;100.00;103543.97;7397627;19;19948;-76
2024/01/12 01:34:35;;;;;;;19.30;5.80;;;;;;;1.41;100.00;103555.47;7399845;19;19931;-77
2024/01/12 01:37:04;;;;;;;11.93;3.88;;;;;;;1.42;100.00;103551.03;7396616;19;19914;-76
2024/01/12 01:39:33;;;;;;;11.35;3.70;;;;;;;1.44;100.00;103552.69;7397512;19;19933;-76
2024/01/12 01:42:02;;;;;;;11.88;3.38;;;;;;;1.44;100.00;103550.03;7398018;19;19918;-76
2024/01/12 01:44:31;;;;;;;11.32;3.88;;;;;;;1.44;100.00;103549.19;7399336;19;19926;-76
2024/01/12 01:47:03;;;;;;;7.40;4.10;;;;;;;1.45;100.00;103549.13;7398415;19;19958;-76
2024/01/12 01:49:31;;;;;;;7.50;2.83;;;;;;;1.45;100.00;103541.16;7396494;19;20462;-76
2024/01/12 01:52:00;;;;;;;7.65;3.00;;;;;;;1.47;100.00;103541.97;7398135;19;19931;-77
2024/01/12 01:54:29;;;;;;;14.60;3.53;;;;;;;1.49;100.00;103534.81;7397140;19;19947;-76
2024/01/12 01:56:58;;;;;;;5.85;2.83;;;;;;;1.52;100.00;103537.38;7397736;19;19922;-76
2024/01/12 01:59:27;;;;;;;13.32;3.90;;;;;;;1.53;100.00;103541.75;7397791;19;19930;-76
2024/01/12 02:01:56;;;;;;;9.52;3.30;;;;;;;1.55;100.00;103537.28;7398369;19;19922;-76
2024/01/12 02:04:28;;;;;;;6.43;3.22;;;;;;;1.56;100.00;103533.69;7397313;19;20392;-77
2024/01/12 02:07:16;;;;;;;8.48;2.72;;;;;;;1.58;100.00;103536.28;7392320;19;19938;-77
2024/01/12 02:09:45;;;;;;;9.75;3.20;;;;;;;1.58;100.00;103523.00;7394904;19;20285;-77
2024/01/12 02:12:13;;;;;;;9.68;3.40;;;;;;;1.57;100.00;103521.25;7396395;19;19926;-77
2024/01/12 02:14:42;;;;;;;5.40;2.75;;;;;;;1.58;100.00;103515.91;7395616;19;20372;-77
2024/01/12 02:17:11;;;;;;;7.50;2.63;;;;;;;1.60;100.00;103514.03;7395333;19;20518;-77
2024/01/12 02:19:42;;;;;;;6.18;2.85;;;;;;;1.61;100.00;103518.44;7398870;19;19935;-77
2024/01/12 02:22:13;;;;;;;8.55;2.17;;;;;;;1.63;100.00;103515.75;7397299;19;20011;-77
2024/01/12 02:24:41;;;;;;;10.80;2.88;;;;;;;1.63;100.00;103519.28;7398601;19;19922;-77
2024/01/12 02:27:10;;;;;;;5.97;2.92;;;;;;;1.65;100.00;103519.19;7396179;19;19926;-77
2024/01/12 02:29:38;;;;;;;6.10;2.92;;;;;;;1.66;100.00;103507.66;7395001;19;20466;-77
2024/01/12 02:32:07;;;;;;;6.53;3.00;;;;;;;1.67;100.00;103514.72;7397363;19;19923;-77
2024/01/12 02:34:36;;;;;;;6.90;3.22;;;;;;;1.68;100.00;103514.63;7397857;19;19926;-77
2024/01/12 02:37:04;;;;;;;7.90;3.08;;;;;;;1.69;100.00;103502.22;7396668;19;19918;-77
2024/01/12 02:39:36;;;;;;;6.28;2.75;;;;;;;1.70;100.00;103502.19;7397320;19;19918;-77
2024/01/12 02:42:04;;;;;;;5.35;2.92;;;;;;;1.71;100.00;103487.97;7396264;19;19942;-77
2024/01/12 02:44:34;;;;;;;4.15;2.20;;;;;;;1.71;100.00;103479.13;7397435;19;19931;-77
2024/01/12 02:47:02;;;;;;;8.15;2.25;;;;;;;1.71;100.00;103489.75;7400695;19;19922;-76
2024/01/12 02:49:31;;;;;;;9.77;3.03;;;;;;;1.70;100.00;103477.38;7398251;19;19926;-77
2024/01/12 02:51:59;;;;;;;8.35;2.38;;;;;;;1.70;100.00;103478.25;7397339;19;19926;-76
2024/01/12 02:54:28;;;;;;;7.93;3.25;;;;;;;1.70;100.00;103480.91;7395403;19;20480;-77
2024/01/12 02:56:59;;;;;;;6.03;2.67;;;;;;;1.70;100.00;103478.25;7392229;19;19939;-77
2024/01/12 02:59:27;;;;;;;3.92;2.85;;;;;;;1.72;100.00;103475.56;7393551;19;20027;-76
2024/01/12 03:02:16;;;;;;;7.95;2.88;;;;;;;1.68;100.00;103464.16;7395182;19;19918;-77
2024/01/12 03:04:44;;;;;;;8.25;2.78;;;;;;;1.66;100.00;103462.50;7396087;19;19939;-77
2024/01/12 03:07:13;;;;;;;6.55;2.47;;;;;;;1.63;100.00;103465.28;7395856;19;19926;-77
2024/01/12 03:09:41;;;;;;;4.35;2.47;;;;;;;1.59;100.00;103469.84;7393959;19;19918;-76
2024/01/12 03:12:13;;;;;;;8.80;2.42;;;;;;;1.55;100.00;103459.38;7394951;19;19962;-77
2024/01/12 03:14:41;;;;;;;8.73;2.58;;;;;;;1.50;100.00;103462.19;7396834;19;19922;-76
2024/01/12 03:17:10;;;;;;;4.88;2.45;;;;;;;1.47;100.00;103453.47;7394627;19;19926;-77
2024/01/12 03:19:38;;;;;;;4.57;2.50;;;;;;;1.42;100.00;103444.78;7394750;19;19919;-77
2024/01/12 03:22:07;;;;;;;4.50;2.72;;;;;;;1.40;100.00;103441.31;7396034;19;20476;-76
2024/01/12 03:24:35;;;;;;;3.80;2.25;;;;;;;1.38;100.00;103446.69;7397413;19;19922;-77
2024/01/12 03:27:04;;;;;;;6.55;2.67;;;;;;;1.38;100.00;103433.44;7395401;19;19946;-77
2024/01/12 03:29:35;;;;;;;7.00;2.83;;;;;;;1.36;100.00;103425.50;7395071;19;19923;-77
2024/01/12 03:32:04;;;;;;;6.18;2.03;;;;;;;1.34;100.00;103434.44;7397017;19;19944;-77
2024/01/12 03:34:32;;;;;;;3.28;1.98;;;;;;;1.32;100.00;103437.16;7393544;19;19927;-78
2024/01/12 03:37:01;;;;;;;4.15;2.33;;;;;;;1.34;100.00;103442.38;7395324;19;19919;-77
2024/01/12 03:39:29;;;;;;;6.78;2.65;;;;;;;1.34;100.00;103435.28;7391457;19;20340;-77
2024/01/12 03:41:58;;;;;;;5.13;2.60;;;;;;;1.38;100.00;103437.88;7394927;19;19918;-77
2024/01/12 03:44:26;;;;;;;5.22;2.08;;;;;;;1.39;100.00;103440.44;7395368;19;19918;-77
2024/01/12 03:46:58;;;;;;;10.50;2.55;;;;;;;1.42;100.00;103437.69;7396164;19;20277;-77
2024/01/12 03:49:27;;;;;;;5.97;2.33;;;;;;;1.45;100.00;103445.53;7395756;19;19919;-77
2024/01/12 03:51:57;;;;;;;7.82;2.80;;;;;;;1.48;100.00;103445.44;7399853;19;19992;-77
2024/01/12 03:54:26;;;;;;;10.18;3.25;;;;;;;1.52;100.00;103439.06;7399628;19;19922;-77
2024/01/12 03:56:54;;;;;;;10.35;3.00;;;;;;;1.56;100.00;103430.06;7400518;19;19922;-77
2024/01/12 03:59:23;;;;;;;10.23;3.25;;;;;;;1.63;100.00;103431.59;7400298;19;19929;-77
2024/01/12 04:01:51;;;;;;;12.85;3.05;;;;;;;1.68;100.00;103431.44;7400913;19;20336;-77
2024/01/12 04:04:23;;;;;;;5.85;2.65;;;;;;;1.69;100.00;103428.69;7400398;19;19938;-77
2024/01/12 04:06:51;;;;;;;6.18;3.33;;;;;;;1.72;100.00;103423.28;7401719;19;20340;-77
2024/01/12 04:09:20;;;;;;;6.85;2.40;;;;;;;1.75;100.00;103425.81;7396874;19;19919;-77
2024/01/12 04:11:48;;;;;;;7.18;2.80;;;;;;;1.78;100.00;103432.78;7399147;19;19922;-77
2024/01/12 04:14:17;;;;;;;7.25;2.67;;;;;;;1.78;100.00;103428.34;7399048;19;19941;-77
2024/01/12 04:16:45;;;;;;;7.40;3.47;;;;;;;1.80;100.00;103415.88;7401710;19;20321;-77
2024/01/12 04:19:14;;;;;;;12.13;3.22;;;;;;;1.79;100.00;103426.56;7400758;19;19950;-77
2024/01/12 04:22:05;;;;;;;8.57;2.85;;;;;;;1.81;100.00;103424.72;7397344;19;20393;-77
2024/01/12 04:24:34;;;;;;;10.60;2.95;;;;;;;1.80;100.00;103415.88;7399357;19;20645;-77
2024/01/12 04:27:03;;;;;;;10.27;3.15;;;;;;;1.80;100.00;103421.22;7395363;19;20262;-76
2024/01/12 04:29:31;;;;;;;10.25;3.63;;;;;;;1.80;100.00;103431.84;7399092;19;20038;-77
2024/01/12 04:32:00;;;;;;;7.47;3.13;;;;;;;1.81;100.00;103438.03;7399701;19;19926;-77
2024/01/12 04:34:28;;;;;;;9.57;3.70;;;;;;;1.83;100.00;103446.78;7399704;19;20011;-77
2024/01/12 04:36:57;;;;;;;11.00;4.38;;;;;;;1.83;100.00;103445.00;7397500;19;19922;-77
2024/01/12 04:39:28;;;;;;;10.48;3.88;;;;;;;1.84;100.00;103432.56;7399748;19;19925;-77
2024/01/12 04:41:57;;;;;;;9.65;3.90;;;;;;;1.88;100.00;103433.31;7397675;19;19922;-77
2024/01/12 04:44:46;;;;;;;9.40;4.18;;;;;;;1.89;100.00;103435.06;7397201;19;20376;-77
2024/01/12 04:47:15;;;;;;;12.82;4.38;;;;;;;1.93;100.00;103431.34;7399753;19;19933;-76
2024/01/12 04:49:44;;;;;;;18.05;6.07;;;;;;;1.95;100.00;103424.19;7398531;19;20299;-76
2024/01/12 04:52:12;;;;;;;14.48;5.10;;;;;;;1.98;100.00;103424.09;7398748;19;19926;-77
2024/01/12 04:54:43;;;;;;;7.60;4.28;;;;;;;2.00;100.00;103412.44;7399314;19;20252;-77
2024/01/12 04:57:13;;;;;;;10.73;4.53;;;;;;;2.00;100.00;103411.59;7398614;19;19950;-76
2024/01/12 04:59:42;;;;;;;11.98;3.88;;;;;;;2.00;100.00;103416.91;7397802;19;19946;-76
2024/01/12 05:02:11;;;;;;;11.40;5.00;;;;;;;2.00;100.00;103417.75;7398315;19;19926;-76
2024/01/12 05:04:39;;;;;;;9.52;4.15;;;;;;;1.99;100.00;103408.06;7399698;19;19946;-76
2024/01/12 05:07:08;;;;;;;7.05;3.78;;;;;;;2.01;100.00;103408.88;7398869;19;19942;-76
2024/01/12 05:09:36;;;;;;;7.25;4.00;;;;;;;2.01;100.00;103397.38;7398753;19;19922;-76
2024/01/12 05:12:09;;;;;;;12.45;3.97;;;;;;;2.01;100.00;103395.59;7395799;19;19930;-76
2024/01/12 05:14:37;;;;;;;11.77;3.55;;;;;;;1.99;100.00;103389.44;7398632;19;20300;-76
2024/01/12 05:17:06;;;;;;;4.32;2.92;;;;;;;1.98;100.00;103385.06;7397248;19;19922;-76
2024/01/12 05:19:56;;;;;;;10.13;2.58;;;;;;;1.96;100.00;103378.06;7394523;19;19919;-76
2024/01/12 05:22:25;;;;;;;11.00;3.80;;;;;;;1.95;100.00;103377.19;7399612;19;19922;-76
2024/01/12 05:24:53;;;;;;;6.80;2.70;;;;;;;1.96;100.00;103372.75;7397635;19;19927;-76
2024/01/12 05:27:44;;;;;;;9.05;3.03;;;;;;;1.94;100.00;103371.97;7396513;19;20295;-76
2024/01/12 05:30:33;;;;;;;10.80;3.30;;;;;;;1.93;100.00;103372.88;7397443;19;20469;-77
2024/01/12 05:33:02;;;;;;;6.28;2.50;;;;;;;1.92;100.00;103363.16;7397050;19;19922;-76
2024/01/12 05:35:31;;;;;;;6.10;2.65;;;;;;;1.89;100.00;103363.31;7396550;19;19926;-76
2024/01/12 05:37:59;;;;;;;8.13;2.72;;;;;;;1.86;100.00;103360.75;7397441;19;19919;-76
2024/01/12 05:40:28;;;;;;;10.13;3.17;;;;;;;1.85;100.00;103362.56;7396895;19;19926;-77
2024/01/12 05:42:59;;;;;;;4.60;2.72;;;;;;;1.85;100.00;103367.00;7394875;19;20252;-77
2024/01/12 05:45:48;;;;;;;12.48;3.30;;;;;;;1.85;100.00;103372.31;7396601;19;19926;-76
2024/01/12 05:48:17;;;;;;;9.38;2.70;;;;;;;1.83;100.00;103378.56;7396914;19;19911;-77
2024/01/12 05:50:45;;;;;;;9.00;3.00;;;;;;;1.82;100.00;103362.66;7396559;19;19915;-77
2024/01/12 05:53:14;;;;;;;9.98;2.85;;;;;;;1.83;100.00;103367.94;7394167;19;20344;-76
2024/01/12 05:55:43;;;;;;;6.03;2.28;;;;;;;1.83;100.00;103361.75;7397772;19;19925;-77
2024/01/12 05:58:14;;;;;;;6.95;2.90;;;;;;;1.80;100.00;103360.09;7397874;19;20288;-76
2024/01/12 06:00:42;;;;;;;7.13;2.58;;;;;;;1.78;100.00;103361.91;7397787;19;19922;-76
2024/01/12 06:03:11;;;;;;;10.90;3.38;;;;;;;1.77;100.00;103354.88;7398077;19;19918;-76
2024/01/12 06:05:40;;;;;;;11.80;2.60;;;;;;;1.76;100.00;103355.81;7399291;19;19931;-76
2024/01/12 06:08:08;;;;;;;8.48;2.80;;;;;;;1.74;100.00;103357.66;7395710;19;19942;-77
2024/01/12 06:10:37;;;;;;;7.72;2.58;;;;;;;1.71;100.00;103363.09;7396849;19;19930;-76
2024/01/12 06:13:06;;;;;;;14.98;2.72;;;;;;;1.70;100.00;103356.03;7394760;19;19919;-76
2024/01/12 06:15:37;;;;;;;6.03;2.53;;;;;;;1.69;100.00;103346.31;7393505;19;20360;-76
2024/01/12 06:18:06;;;;;;;5.53;2.72;;;;;;;1.69;100.00;103350.78;7395012;19;19946;-76
2024/01/12 06:20:35;;;;;;;6.97;3.13;;;;;;;1.69;100.00;103354.31;7397722;19;22653;-76
2024/01/12 06:23:03;;;;;;;8.40;2.97;;;;;;;1.70;100.00;103356.03;7397399;19;20427;-76
2024/01/12 06:25:52;;;;;;;11.63;3.10;;;;;;;1.72;100.00;103361.31;7392668;19;19955;-76
2024/01/12 06:28:21;;;;;;;9.68;2.83;;;;;;;1.73;100.00;103363.88;7396286;19;19922;-77
2024/01/12 06:30:54;;;;;;;11.63;3.47;;;;;;;1.74;100.00;103367.41;7393832;19;19942;-76
2024/01/12 06:33:42;;;;;;;10.18;3.25;;;;;;;1.72;100.00;103370.16;7394724;19;19922;-76
2024/01/12 06:36:11;;;;;;;7.45;2.72;;;;;;;1.73;100.00;103366.53;7395764;19;20737;-76
2024/01/12 06:38:40;;;;;;;6.75;2.88;;;;;;;1.75;100.00;103358.53;7393566;19;19953;-77
2024/01/12 06:41:08;;;;;;;8.98;3.10;;;;;;;1.75;100.00;103364.69;7395486;19;19939;-77
2024/01/12 06:43:37;;;;;;;8.43;3.03;;;;;;;1.76;100.00;103366.44;7396312;19;19933;-77
2024/01/12 06:46:09;;;;;;;10.30;3.00;;;;;;;1.76;100.00;103371.75;7395322;19;19922;-77
2024/01/12 06:48:38;;;;;;;10.38;3.10;;;;;;;1.75;100.00;103370.03;7395836;19;19923;-77
2024/01/12 06:51:07;;;;;;;9.48;3.50;;;;;;;1.77;100.00;103365.50;7391601;19;19930;-77
2024/01/12 06:53:56;;;;;;;7.38;3.20;;;;;;;1.78;100.00;103348.63;7394134;19;20255;-77
2024/01/12 06:56:24;;;;;;;7.57;2.95;;;;;;;1.79;100.00;103349.50;7396497;19;19922;-77
2024/01/12 06:58:53;;;;;;;7.53;3.10;;;;;;;1.78;100.00;103351.28;7393428;19;19922;-77
2024/01/12 07:01:24;;;;;;;8.43;3.28;;;;;;;1.80;100.00;103353.91;7393251;19;19933;-77
2024/01/12 07:03:53;;;;;;;8.32;3.25;;;;;;;1.80;100.00;103360.09;7396503;19;20473;-77
2024/01/12 07:06:22;;;;;;;6.35;3.70;;;;;;;1.82;100.00;103373.28;7391161;19;19918;-77
2024/01/12 07:08:50;;;;;;;8.77;3.50;;;;;;;1.82;100.00;103365.31;7393033;19;20374;-77
2024/01/12 07:11:19;;;;;;;8.07;3.90;;;;;;;1.84;100.00;103368.78;7393534;19;19922;-77
2024/01/12 07:13:48;;;;;;;13.75;3.80;;;;;;;1.83;100.00;103365.28;7395356;19;19922;-77
2024/01/12 07:16:16;;;;;;;6.72;3.20;;;;;;;1.85;100.00;103365.22;7394217;19;19919;-76
2024/01/12 07:18:47;;;;;;;6.32;2.60;;;;;;;1.85;100.00;103365.22;7395281;19;19952;-77
2024/01/12 07:21:16;;;;;;;10.60;3.00;;;;;;;1.86;100.00;103368.72;7395188;19;19948;-76
2024/01/12 07:23:45;;;;;;;6.97;2.97;;;;;;;1.85;100.00;103365.22;7394828;19;19929;-76
2024/01/12 07:26:13;;;;;;;11.98;3.30;;;;;;;1.83;100.00;103367.06;7391250;19;19923;-77
2024/01/12 07:28:42;;;;;;;9.05;3.03;;;;;;;1.83;100.00;103367.06;7392723;19;19918;-76
2024/01/12 07:31:10;;;;;;;9.13;2.97;;;;;;;1.82;100.00;103354.69;7394480;19;19930;-77
2024/01/12 07:33:39;;;;;;;10.02;3.60;;;;;;;1.79;100.00;103366.31;7393321;19;19926;-76
2024/01/12 07:36:11;;;;;;;9.75;4.00;;;;;;;1.80;100.00;103361.88;7390999;19;20248;-77
2024/01/12 07:38:39;;;;;;;11.25;3.13;;;;;;;1.80;100.00;103353.91;7394517;19;19962;-76
2024/01/12 07:41:08;;;;;;;8.85;3.10;;;;;;;1.80;100.00;103354.75;7394285;19;19929;-76
2024/01/12 07:43:36;;;;;;;15.35;3.90;;;;;;;1.82;100.00;103350.25;7394805;19;19931;-76
2024/01/12 07:46:05;;;;;;;13.45;3.63;;;;;;;1.82;100.00;103349.38;7395180;19;20258;-76
2024/01/12 07:48:34;;;;;;;13.60;3.38;;;;;;;1.83;100.00;103348.44;7393603;19;20071;-76
2024/01/12 07:51:03;;;;;;;11.30;3.20;;;;;;;1.85;100.00;103354.59;7392139;19;19918;-76
2024/01/12 07:53:34;;;;;;;14.00;3.00;;;;;;;1.88;100.00;103353.59;7394906;19;20012;-77
2024/01/12 07:56:03;;;;;;;7.35;3.38;;;;;;;1.89;100.00;103353.53;7396882;19;20334;-78
2024/01/12 07:58:32;;;;;;;10.88;3.85;;;;;;;1.91;100.00;103358.78;7396530;19;19942;-77
2024/01/12 08:01:00;;;;;;;11.43;2.92;;;;;;;1.94;100.00;103358.69;7398409;19;19932;-77
2024/01/12 08:03:29;;;;;;;9.65;3.30;;;;;;;1.94;100.00;103364.88;7401006;19;19923;-76
2024/01/12 08:05:57;;;;;;;9.70;2.92;;;;;;;1.95;100.00;103363.91;7390577;19;19926;-76
2024/01/12 08:08:26;;;;;;;5.55;2.33;;;;;;;1.96;100.00;103368.31;7398155;19;19934;-77
2024/01/12 08:10:57;;;;;;;8.07;3.17;;;;;;;1.99;100.00;103357.53;7393967;19;19931;-77
2024/01/12 08:13:26;;;;;;;6.18;2.67;;;;;;;2.01;100.00;103357.50;7393020;19;20356;-77
2024/01/12 08:15:54;;;;;;;11.07;3.10;;;;;;;2.01;100.00;103357.50;7390803;19;19914;-78
2024/01/12 08:18:23;;;;;;;7.43;2.83;;;;;;;2.02;100.00;103345.94;7393095;19;19923;-78
2024/01/12 08:20:51;;;;;;;14.90;2.85;;;;;;;2.02;100.00;103352.13;7393986;19;19927;-78
2024/01/12 08:23:20;;;;;;;10.05;3.03;;;;;;;2.04;100.00;103355.56;7391457;19;20257;-78
2024/01/12 08:25:49;;;;;;;8.05;2.38;;;;;;;2.06;100.00;103368.81;7393079;19;19922;-75
2024/01/12 08:28:20;;;;;;;10.55;2.90;;;;;;;2.08;100.00;103361.63;7391521;19;19923;-76
2024/01/12 08:30:48;;;;;;;8.27;2.47;;;;;;;2.10;100.00;103354.47;7390907;19;19922;-76
2024/01/12 08:33:17;;;;;;;11.35;2.28;;;;;;;2.10;100.00;103352.69;7392427;19;19946;-76
2024/01/12 08:35:45;;;;;;;7.70;2.35;;;;;;;2.13;100.00;103351.69;7392533;19;19938;-77
2024/01/12 08:38:14;;;;;;;11.43;2.40;;;;;;;2.16;100.00;103343.56;7399067;19;20457;-77
2024/01/12 08:40:43;;;;;;;9.48;2.63;;;;;;;2.17;100.00;103346.19;7398909;19;19926;-78
2024/01/12 08:43:16;;;;;;;8.77;2.38;;;;;;;2.20;100.00;103345.19;7397674;19;19929;-78
2024/01/12 08:45:48;;;;;;;11.93;2.92;;;;;;;2.24;100.00;103344.16;7398750;19;19926;-78
2024/01/12 08:48:16;;;;;;;7.65;2.83;;;;;;;2.24;100.00;103331.69;7398706;19;20309;-77
2024/01/12 08:50:45;;;;;;;12.75;3.72;;;;;;;2.26;100.00;103334.28;7397612;19;19955;-77
2024/01/12 08:53:14;;;;;;;7.97;2.80;;;;;;;2.27;100.00;103325.41;7398881;19;19933;-78
2024/01/12 08:55:42;;;;;;;10.95;2.97;;;;;;;2.26;100.00;103329.84;7397698;19;19937;-78
2024/01/12 08:58:12;;;;;;;8.15;2.53;;;;;;;2.26;100.00;103339.63;7397924;19;22715;-77
2024/01/12 09:01:03;;;;;;;7.63;2.70;;;;;;;2.27;100.00;103318.28;7396404;19;19933;-77
2024/01/12 09:03:32;;;;;;;10.63;2.55;;;;;;;2.28;100.00;103314.72;7397183;19;19923;-77
2024/01/12 09:06:01;;;;;;;8.52;2.42;;;;;;;2.29;100.00;103326.19;7398930;19;19942;-77
2024/01/12 09:08:29;;;;;;;13.70;2.58;;;;;;;2.29;100.00;103321.72;7397515;19;19926;-76
2024/01/12 09:10:58;;;;;;;12.13;3.03;;;;;;;2.30;100.00;103317.28;7396680;19;19943;-77
2024/01/12 09:13:26;;;;;;;11.77;3.03;;;;;;;2.31;100.00;103311.03;7397757;19;19926;-79
2024/01/12 09:15:55;;;;;;;8.90;1.98;;;;;;;2.33;100.00;103317.16;7398005;19;20466;-78
2024/01/12 09:18:48;;;;;;;7.55;3.00;;;;;;;2.34;100.00;103315.34;7394523;19;19990;-78
2024/01/12 09:21:17;;;;;;;8.50;2.30;;;;;;;2.37;100.00;103307.28;7397780;19;19918;-78
2024/01/12 09:24:09;;;;;;;12.85;2.95;;;;;;;2.38;100.00;103312.50;7397441;19;20451;-79
2024/01/12 09:26:40;;;;;;;10.77;2.00;;;;;;;2.41;100.00;103312.41;7397317;19;19923;-77
2024/01/12 09:29:09;;;;;;;7.90;2.40;;;;;;;2.44;100.00;103306.94;7398807;19;19954;-77
2024/01/12 09:31:38;;;;;;;11.15;2.30;;;;;;;2.49;100.00;103304.09;7394885;19;19923;-78
2024/01/12 09:34:09;;;;;;;7.18;2.50;;;;;;;2.51;100.00;103312.84;7398417;19;19922;-78
2024/01/12 09:36:38;;;;;;;8.10;1.80;;;;;;;2.54;100.00;103310.06;7395941;19;21730;-77
2024/01/12 09:39:06;;;;;;;11.77;2.05;;;;;;;2.54;100.00;103308.28;7398508;19;19959;-77
2024/01/12 09:41:47;;;;;;;11.75;2.60;;;;;;;2.56;100.00;103325.03;7398338;19;20345;-78
2024/01/12 09:44:21;;;;;;;12.45;2.00;;;;;;;2.58;100.00;103327.63;7398217;19;19923;-78
2024/01/12 09:46:57;;;;;;;8.85;2.03;;;;;;;2.61;100.00;103319.50;7398870;19;19929;-77
2024/01/12 09:49:30;;;;;;;8.48;2.03;;;;;;;2.64;100.00;103314.91;7394929;19;19987;-77
2024/01/12 09:52:00;;;;;;;14.48;2.30;;;;;;;2.67;100.00;103316.59;7394569;19;19931;-77
2024/01/12 09:54:29;;;;;;;9.30;1.80;;;;;;;2.72;100.00;103318.09;7398253;19;19927;-77
2024/01/12 09:56:59;;;;;;;13.18;2.00;;;;;;;2.76;100.00;103310.00;7395005;19;19943;-77
2024/01/12 09:59:29;;;;;;;13.68;2.97;;;;;;;2.78;100.00;103314.31;7398054;19;19955;-77
2024/01/12 10:01:59;;;;;;;13.93;3.25;;;;;;;2.83;100.00;103322.97;7393315;19;20296;-77
2024/01/12 10:04:30;;;;;;;7.20;2.20;;;;;;;2.88;100.00;103322.78;7394423;19;20284;-77
2024/01/12 10:06:59;;;;;;;7.05;1.75;;;;;;;2.93;100.00;103329.66;7397589;19;19915;-78
2024/01/12 10:09:29;;;;;;;10.48;1.90;;;;;;;3.00;100.00;103317.78;7398214;19;20357;-75
2024/01/12 10:11:59;;;;;;;11.85;2.22;;;;;;;3.07;100.00;103316.56;7400330;19;20271;-77
2024/01/12 10:14:28;;;;;;;9.73;1.73;;;;;;;3.16;100.00;103313.47;7397814;19;19930;-77
2024/01/12 10:16:57;;;;;;;10.73;2.38;;;;;;;3.23;100.00;103318.53;7398817;19;19918;-77
2024/01/12 10:19:26;;;;;;;10.43;1.55;;;;;;;3.27;100.00;103315.66;7397647;19;20538;-77
2024/01/12 10:21:57;;;;;;;14.35;2.63;;;;;;;3.31;100.00;103316.38;7396520;19;19943;-75
2024/01/12 10:24:27;;;;;;;10.70;2.33;;;;;;;3.34;100.00;103317.09;7394745;19;19940;-77
2024/01/12 10:26:56;;;;;;;13.30;3.67;;;;;;;3.36;100.00;103325.03;7397379;19;19922;-76
2024/01/12 10:29:24;;;;;;;14.93;2.83;;;;;;;3.37;100.00;103321.41;7397694;19;19943;-77
2024/01/12 10:31:53;;;;;;;9.68;1.88;;;;;;;3.36;100.00;103312.59;7395697;19;19939;-76
2024/01/12 10:34:24;;;;;;;7.15;3.30;;;;;;;3.36;100.00;103306.41;7395883;19;20618;-77
2024/01/12 10:37:01;;;;;;;13.68;3.60;;;;;;;3.33;100.00;103301.19;7397987;19;19914;-76
2024/01/12 10:39:32;;;;;;;19.13;3.15;;;;;;;3.33;100.00;103314.50;7395674;19;19934;-76
2024/01/12 10:42:09;;;;;;;9.65;2.40;;;;;;;3.31;100.00;103301.28;7397655;19;19935;-77
2024/01/12 10:44:41;;;;;;;11.20;2.17;;;;;;;3.30;100.00;103304.88;7397497;19;19923;-77
2024/01/12 10:47:17;;;;;;;26.92;6.13;;;;;;;3.30;100.00;103296.88;7395071;19;19919;-77
2024/01/12 10:49:52;;;;;;;9.88;2.17;;;;;;;3.32;100.00;103300.34;7393711;19;19922;-77
2024/01/12 10:52:34;;;;;;;18.33;3.80;;;;;;;3.33;100.00;103296.72;7393424;19;19926;-77
2024/01/12 10:55:25;;;;;;;13.45;2.17;;;;;;;3.37;100.00;103300.09;7393882;19;19971;-77
2024/01/12 10:57:56;;;;;;;9.55;2.85;;;;;;;3.38;100.00;103301.84;7396375;19;19946;-77
2024/01/12 11:00:26;;;;;;;11.52;2.60;;;;;;;3.37;100.00;103302.75;7392974;19;19922;-77
2024/01/12 11:02:57;;;;;;;13.98;2.58;;;;;;;3.36;100.00;103301.06;7397416;19;19952;-78
2024/01/12 11:05:28;;;;;;;11.70;2.00;;;;;;;3.35;100.00;103294.00;7397047;19;19942;-77
2024/01/12 11:08:02;;;;;;;23.23;5.40;;;;;;;3.38;100.00;103284.06;7396204;19;20381;-76
2024/01/12 11:10:33;;;;;;;12.02;3.17;;;;;;;3.41;100.00;103273.25;7394214;19;19915;-76
2024/01/12 11:13:22;;;;;;;19.48;2.90;;;;;;;3.49;100.00;103267.59;7394880;19;19918;-76
2024/01/12 11:15:52;;;;;;;11.23;2.65;;;;;;;3.52;100.00;103267.44;7394216;19;19919;-79
2024/01/12 11:18:21;;;;;;;10.65;1.65;;;;;;;3.55;100.00;103265.47;7387937;19;19958;-78
2024/01/12 11:20:49;;;;;;;14.55;3.13;;;;;;;3.59;100.00;103268.84;7393831;19;19926;-82
2024/01/12 11:23:21;;;;;;;12.38;2.67;;;;;;;3.61;100.00;103251.88;7395232;19;19926;-81
2024/01/12 11:25:49;;;;;;;13.85;4.07;;;;;;;3.65;100.00;103253.44;7395917;19;19939;-77
2024/01/12 11:28:18;;;;;;;13.82;1.95;;;;;;;3.67;100.00;103244.53;7396186;19;20377;-78
2024/01/12 11:30:52;;;;;;;6.45;2.00;;;;;;;3.68;100.00;103236.44;7395420;19;20492;-78
2024/01/12 11:33:20;;;;;;;20.85;4.43;;;;;;;3.69;100.00;103235.50;7395667;19;19922;-78
2024/01/12 11:35:51;;;;;;;15.02;2.28;;;;;;;3.71;100.00;103235.44;7395894;19;19918;-78
2024/01/12 11:38:23;;;;;;;12.30;3.42;;;;;;;3.74;100.00;103235.28;7395554;19;19951;-78